Home   Weather   India   Melvisharam   Past weeks
Flag for India

Past Weather in Melvisharam, Tamil Nadu, India — Yesterday and Last 2 Weeks

Currently: 77 °F. Drizzle. Fog. (Weather station: Madras / Minambakkam, India). See more current weather

Past Weather in Melvisharam — Graph

°F

Melvisharam Temperature Yesterday

Maximum temperature yesterday: 84 °F (at 1:00 pm)
Minimum temperature yesterday: 77 °F (at 1:00 am)
Average temperature yesterday: 80 °F

High & Low Weather Summary for the Past Weeks

 TemperatureHumidityPressure
High90 °F (Dec 1, 12:30 pm)94% (Nov 24, 12:30 am)29.95 "Hg (Nov 24, 12:30 am)
Low73 °F (Nov 30, 4:00 am)59% (Nov 29, 3:00 pm)29.74 "Hg (Nov 23, 1:30 pm)
Average82 °F82%29.84 "Hg
* Reported Nov 23 7:30 am — Dec 8 8:00 am, Melvisharam. Weather by CustomWeather, © 2022

Note: Actual official high and low records may vary slightly from our data, if they occured in-between our weather recording intervals... More about our weather records

Melvisharam Weather History for the Previous 24 Hours

Scroll right to see more
 ConditionsComfort  
Time TempWeatherWind HumidityBarometerVisibility
8:00 am
Thu, Dec 8
77 °FFog.14 mph83%29.80 "Hg1 mi
7:30 am77 °FFog.12 mph83%29.80 "Hg1 mi
7:00 am77 °FFog.9 mph83%29.77 "Hg1 mi
6:30 am75 °FFog.9 mph89%29.77 "Hg1 mi
5:00 am75 °FFog.10 mph89%29.74 "Hg1 mi
4:30 am75 °FFog.9 mph89%29.74 "Hg1 mi
4:00 am75 °FFog.9 mph89%29.74 "Hg1 mi
3:30 am75 °FFog.8 mph89%29.74 "Hg1 mi
3:00 am75 °FFog.8 mph89%29.74 "Hg1 mi
2:30 am75 °FFog.5 mph89%29.77 "Hg1 mi
2:00 am75 °FFog.5 mph89%29.77 "Hg1 mi
1:30 am75 °FFog.6 mph89%29.80 "Hg1 mi
1:00 am75 °FFog.5 mph89%29.80 "Hg1 mi
12:30 am79 °FFog.6 mph79%29.83 "Hg1 mi
12:00 am77 °FFog.5 mph83%29.83 "Hg1 mi
11:30 pm
Wed, Dec 7
77 °FFog.5 mph83%29.83 "Hg1 mi
11:00 pm77 °FFog.5 mph83%29.83 "Hg1 mi
10:30 pm77 °FFog.5 mph83%29.83 "Hg1 mi
10:00 pm79 °FFog.6 mph79%29.83 "Hg1 mi
9:30 pm79 °FFog.9 mph79%29.83 "Hg1 mi
9:00 pm79 °FFog.10 mph79%29.83 "Hg1 mi
8:30 pm79 °FFog.10 mph79%29.83 "Hg1 mi
8:00 pm79 °FFog.8 mph79%29.83 "Hg1 mi
7:30 pm81 °FFog.9 mph79%29.83 "Hg1 mi
7:00 pm81 °FFog.8 mph79%29.80 "Hg1 mi
6:30 pm81 °FFog.9 mph79%29.80 "Hg1 mi
6:00 pm81 °FFog.9 mph79%29.80 "Hg1 mi
5:30 pm82 °FFog.12 mph74%29.77 "Hg2 mi
4:30 pm82 °FFog.12 mph74%29.77 "Hg2 mi
3:30 pm82 °FBroken clouds.12 mph74%29.77 "Hg2 mi
3:00 pm84 °FBroken clouds.13 mph70%29.77 "Hg2 mi
2:30 pm84 °FBroken clouds.15 mph70%29.77 "Hg2 mi
2:00 pm84 °FBroken clouds.14 mph66%29.77 "Hg2 mi
1:30 pm84 °FBroken clouds.15 mph70%29.80 "Hg1 mi
1:00 pm84 °FFog.14 mph70%29.80 "Hg1 mi
12:30 pm82 °FFog.14 mph74%29.83 "Hg1 mi
12:00 pm82 °FFog.14 mph74%29.83 "Hg1 mi
11:30 am82 °FFog.14 mph74%29.83 "Hg1 mi
11:00 am82 °FFog.14 mph74%29.86 "Hg1 mi
10:30 am82 °FFog.12 mph74%29.86 "Hg1 mi
10:00 am81 °FFog.12 mph84%29.86 "Hg1 mi
9:30 am81 °FFog.12 mph84%29.86 "Hg1 mi
9:00 am79 °FFog.12 mph89%29.86 "Hg1 mi
Weather by CustomWeather, © 2022

See weather overview